Alpine, Colorado
Current Conditions -  °F | °C
As of 4:10 PM on Thursday 18 Dec 2014 (Local Time) from KRCV Reporting Station
Overcast Overcast  
Wind Chill: 30°   Ceiling: 5000
Heat Index: 30°   Visibility: 10mi
Dew Point: 20°   Wind: 0mph
Humidity: 66%   Direction: NA
Pressure: 30.07"   Gusts: NA
Location:  37.6617°N, 106.617°W
Report Text: KRCV 182310Z AUTO 00000KT 10SM BKN050 OVC060 M01/M07 A3007 RMK AO2 T10101066
Loading
Personal Weather Stations






























Interactive Weather Map New forecast layout! Learn more

10-Day Weather Forecast

Advertisements
Track Severe Weather on mobile